sensor_id;sensor_type;location;lat;lon;timestamp;P1;durP1;ratioP1;P2;durP2;ratioP2
29776;SDS011;16677;52.224;7.484;2023-05-10T07:54:08;36.80;;;30.75;;
29776;SDS011;16677;52.224;7.484;2023-05-10T07:56:36;36.47;;;30.83;;
29776;SDS011;16677;52.224;7.484;2023-05-10T07:59:03;33.72;;;29.58;;
29776;SDS011;16677;52.224;7.484;2023-05-10T08:01:33;35.28;;;29.58;;
29776;SDS011;16677;52.224;7.484;2023-05-10T08:04:01;38.38;;;29.90;;
29776;SDS011;16677;52.224;7.484;2023-05-10T08:06:29;31.77;;;27.80;;
29776;SDS011;16677;52.224;7.484;2023-05-10T08:08:56;33.75;;;28.83;;
29776;SDS011;16677;52.224;7.484;2023-05-10T08:11:24;33.37;;;28.30;;
29776;SDS011;16677;52.224;7.484;2023-05-10T08:13:51;31.27;;;26.77;;
29776;SDS011;16677;52.224;7.484;2023-05-10T08:16:19;33.65;;;27.20;;
29776;SDS011;16677;52.224;7.484;2023-05-10T08:18:46;32.33;;;27.77;;
29776;SDS011;16677;52.224;7.484;2023-05-10T08:21:15;41.47;;;28.25;;
29776;SDS011;16677;52.224;7.484;2023-05-10T08:23:42;31.40;;;27.77;;
29776;SDS011;16677;52.224;7.484;2023-05-10T08:26:12;30.92;;;27.50;;
29776;SDS011;16677;52.224;7.484;2023-05-10T08:28:39;30.35;;;27.13;;
29776;SDS011;16677;52.224;7.484;2023-05-10T08:31:06;32.05;;;26.88;;
29776;SDS011;16677;52.224;7.484;2023-05-10T08:33:33;31.13;;;26.10;;
29776;SDS011;16677;52.224;7.484;2023-05-10T08:36:00;31.95;;;25.67;;
29776;SDS011;16677;52.224;7.484;2023-05-10T08:38:27;32.05;;;26.65;;
29776;SDS011;16677;52.224;7.484;2023-05-10T08:40:55;31.58;;;26.42;;
29776;SDS011;16677;52.224;7.484;2023-05-10T08:43:29;31.08;;;26.50;;
29776;SDS011;16677;52.224;7.484;2023-05-10T08:45:59;31.50;;;26.52;;
29776;SDS011;16677;52.224;7.484;2023-05-10T08:48:29;31.33;;;26.98;;
29776;SDS011;16677;52.224;7.484;2023-05-10T08:50:58;32.70;;;26.87;;
29776;SDS011;16677;52.224;7.484;2023-05-10T08:53:27;30.42;;;26.27;;
29776;SDS011;16677;52.224;7.484;2023-05-10T08:55:58;31.75;;;27.48;;
29776;SDS011;16677;52.224;7.484;2023-05-10T08:58:27;32.10;;;26.60;;
29776;SDS011;16677;52.224;7.484;2023-05-10T09:00:54;33.35;;;26.52;;
29776;SDS011;16677;52.224;7.484;2023-05-10T09:03:23;30.10;;;25.20;;
29776;SDS011;16677;52.224;7.484;2023-05-10T09:05:50;30.70;;;26.63;;
29776;SDS011;16677;52.224;7.484;2023-05-10T09:08:17;33.95;;;26.95;;
29776;SDS011;16677;52.224;7.484;2023-05-10T09:10:46;31.30;;;25.63;;
29776;SDS011;16677;52.224;7.484;2023-05-10T09:13:14;28.77;;;25.67;;
29776;SDS011;16677;52.224;7.484;2023-05-10T09:15:43;31.42;;;26.08;;
29776;SDS011;16677;52.224;7.484;2023-05-10T09:18:11;31.75;;;25.83;;
29776;SDS011;16677;52.224;7.484;2023-05-10T09:20:39;31.17;;;26.48;;
29776;SDS011;16677;52.224;7.484;2023-05-10T09:23:06;29.40;;;24.00;;
29776;SDS011;16677;52.224;7.484;2023-05-10T09:25:34;29.38;;;24.85;;
29776;SDS011;16677;52.224;7.484;2023-05-10T09:28:01;31.30;;;26.52;;
29776;SDS011;16677;52.224;7.484;2023-05-10T09:30:32;28.48;;;24.23;;
29776;SDS011;16677;52.224;7.484;2023-05-10T09:32:59;28.27;;;23.63;;
29776;SDS011;16677;52.224;7.484;2023-05-10T09:35:28;27.45;;;23.92;;
29776;SDS011;16677;52.224;7.484;2023-05-10T09:37:59;30.42;;;25.50;;
29776;SDS011;16677;52.224;7.484;2023-05-10T09:40:29;31.63;;;26.00;;
29776;SDS011;16677;52.224;7.484;2023-05-10T09:43:00;29.50;;;25.98;;
29776;SDS011;16677;52.224;7.484;2023-05-10T09:45:32;31.98;;;27.02;;
29776;SDS011;16677;52.224;7.484;2023-05-10T09:48:04;29.95;;;25.17;;
29776;SDS011;16677;52.224;7.484;2023-05-10T09:50:33;31.75;;;25.83;;
29776;SDS011;16677;52.224;7.484;2023-05-10T09:53:02;29.67;;;24.67;;
29776;SDS011;16677;52.224;7.484;2023-05-10T09:58:07;27.48;;;23.95;;
29776;SDS011;16677;52.224;7.484;2023-05-10T15:16:11;11.93;;;9.17;;
29776;SDS011;16677;52.224;7.484;2023-05-10T15:18:38;13.03;;;10.20;;
29776;SDS011;16677;52.224;7.484;2023-05-10T15:21:05;12.30;;;10.83;;
29776;SDS011;16677;52.224;7.484;2023-05-10T15:23:32;12.73;;;10.93;;
29776;SDS011;16677;52.224;7.484;2023-05-10T15:25:59;12.60;;;11.30;;
29776;SDS011;16677;52.224;7.484;2023-05-10T15:28:27;13.53;;;10.77;;
29776;SDS011;16677;52.224;7.484;2023-05-10T15:30:54;12.65;;;10.57;;
29776;SDS011;16677;52.224;7.484;2023-05-10T15:33:22;11.73;;;10.43;;
29776;SDS011;16677;52.224;7.484;2023-05-10T15:35:49;13.43;;;10.60;;
29776;SDS011;16677;52.224;7.484;2023-05-10T15:38:16;12.73;;;10.38;;
29776;SDS011;16677;52.224;7.484;2023-05-10T15:40:44;14.82;;;10.32;;
29776;SDS011;16677;52.224;7.484;2023-05-10T15:43:11;16.88;;;11.80;;
29776;SDS011;16677;52.224;7.484;2023-05-10T15:45:38;16.80;;;11.20;;
29776;SDS011;16677;52.224;7.484;2023-05-10T15:48:05;13.60;;;10.37;;
29776;SDS011;16677;52.224;7.484;2023-05-10T15:50:33;9.45;;;7.90;;
29776;SDS011;16677;52.224;7.484;2023-05-10T15:53:00;14.88;;;9.77;;
29776;SDS011;16677;52.224;7.484;2023-05-10T15:57:57;14.93;;;13.05;;
29776;SDS011;16677;52.224;7.484;2023-05-10T16:00:24;10.82;;;8.25;;
29776;SDS011;16677;52.224;7.484;2023-05-10T16:02:51;9.40;;;7.00;;
29776;SDS011;16677;52.224;7.484;2023-05-10T16:05:19;8.93;;;7.70;;
